Terminal Aerodrome Forecast
Issued by NWS

Home | Current Version | Previous Version | Text Only | Print | Product List | Glossary On
Versions: 1 2 3 4 5 6 7 8 9 10 11 12 13 14 15 16 17 18 19 20 21 22 23 24 25
000
FTAK31 PANC 161739
TAFAEN
TAF
PAEN 161739Z 1618/1718 15005KT P6SM VCSH SCT018 BKN060
     FM162100 VRB03KT P6SM VCSH BKN060
     FM170600 02008KT P6SM -SHRA SCT030 BKN050
     FM171500 02015G20KT P6SM -SHRA BKN050=

USA.gov is the U.S. government's official web portal to all federal, state and local government web resources and services.